This is the latest recevied weather packets stored in our database for station/object KE0PRS. If no packets are shown the sender has not sent any weather packets the latest 1 day(s).
| Time | Temp. | Humidity | Pressure | Rain* | Wind** | Luminosity | Snow |
|---|---|---|---|---|---|---|---|
| 1778029513 | 7.78° C | 71% | 1014.8 hPa | 0 mm | 0.89 m/s, 91° | 7 W/m² | - |
| 1778029209 | 8.33° C | 69% | 1014.7 hPa | 0 mm | 2.24 m/s, 16° | 11 W/m² | - |
| 1778028907 | 8.33° C | 68% | 1014.6 hPa | 0 mm | 1.79 m/s, 64° | 11 W/m² | - |
| 1778028602 | 8.33° C | 68% | 1014.7 hPa | 0 mm | 1.34 m/s, 242° | 8 W/m² | - |
| 1778028300 | 8.89° C | 67% | 1014.8 hPa | 0 mm | 2.24 m/s, 62° | 9 W/m² | - |
| 1778027996 | 8.89° C | 66% | 1014.7 hPa | 0 mm | 1.34 m/s, 24° | 9 W/m² | - |
| 1778027692 | 8.89° C | 64% | 1014.8 hPa | 0 mm | 0.45 m/s, 123° | 8 W/m² | - |
| 1778027388 | 9.44° C | 62% | 1015 hPa | 0 mm | 2.24 m/s, 23° | 8 W/m² | - |
| 1778027085 | 9.44° C | 60% | 1014.6 hPa | 0 mm | 0.45 m/s, 141° | 8 W/m² | - |
| 1778026780 | 9.44° C | 60% | 1014.3 hPa | 0 mm | 1.79 m/s, 151° | 8 W/m² | - |
| 1778026478 | 9.44° C | 59% | 1014.7 hPa | 0 mm | 1.79 m/s, 11° | 7 W/m² | - |
| 1778026175 | 9.44° C | 59% | 1014.6 hPa | 0 mm | 0.89 m/s, 139° | 10 W/m² | - |
| 1778025872 | 9.44° C | 58% | 1014.4 hPa | 0 mm | 1.34 m/s, 4° | 17 W/m² | - |
| 1778025569 | 10° C | 59% | 1014.2 hPa | 0 mm | 1.34 m/s, 20° | 22 W/m² | - |
| 1778025267 | 10° C | 58% | 1014.3 hPa | 0 mm | 0.89 m/s, 113° | 28 W/m² | - |
| 1778024964 | 10° C | 57% | 1013.9 hPa | 0 mm | 2.24 m/s, 51° | 34 W/m² | - |
| 1778024661 | 10° C | 57% | 1013.7 hPa | 0 mm | 0.45 m/s, 113° | 40 W/m² | - |
| 1778024358 | 10° C | 56% | 1013.6 hPa | 0 mm | 1.34 m/s, 86° | 51 W/m² | - |
| 1778024056 | 10° C | 55% | 1013.6 hPa | 0 mm | 1.34 m/s, 48° | 57 W/m² | - |
| 1778023753 | 10.56° C | 55% | 1013.5 hPa | 0 mm | 3.13 m/s, 40° | 52 W/m² | - |
| 1778023451 | 10.56° C | 55% | 1013.5 hPa | 0 mm | 1.79 m/s, 101° | 38 W/m² | - |
| 1778023147 | 10.56° C | 56% | 1013.5 hPa | 0 mm | 2.24 m/s, 82° | 49 W/m² | - |
| 1778022845 | 10.56° C | 56% | 1013.3 hPa | 0 mm | 3.13 m/s, 31° | 70 W/m² | - |
| 1778022543 | 10.56° C | 56% | 1013.3 hPa | 0 mm | 4.02 m/s, 29° | 78 W/m² | - |
| 1778022240 | 10.56° C | 55% | 1013.1 hPa | 0 mm | 3.13 m/s, 75° | 104 W/m² | - |
* Rain latest hour (hover to see other rain measurements)
** Current wind speed in m/s (hover to see current wind gust speed)